默认 日期 大小 文件数 浏览量 最新下载 xml
2024 a磁力链接相关资源由用户搜索指令自动获取,结果来源于网络,本站不存储任何资料,亦不承担任何责任,请于24小时内删除,搜索到12000个磁力,显示前4000条数据,用时26ms。
    ... Sea.flac": 10633628, "There Is a Garden.jpg": 526306, "There Is ... a Garden.txt": 2605, "04. In ...
创建时间: 2024-07-18 09:26:58 大小:203.04 MB 文件数量:11 热度:2 最近下载:2025-01-15 13:01:40
    ... 24731406, "L.A. Times.cue": 2466, "L.A. Times.log": 8360 ... River.flac": 17481825, "10 - L.A. Times.flac": 29896006, "02 - ... }, "CD2": {"L.A. Times.cue": 2683, "L.A. Times.log": 8467 ... Stripped).flac": 6773652, "10 - L.A. Times (Stripped).flac": 24914319, "02 ...
创建时间: 2024-07-18 09:54:37 大小:419.35 MB 文件数量:25 热度:3 最近下载:2025-02-16 20:18:05
    {"[TGx]Downloaded from torrentgalaxy.to .txt": 715, "Signed, Sealed, Delivered - A Tale of Three Letters 2024 1080p.ts": 943679912}
创建时间: 2024-07-18 11:40:04 大小:899.96 MB 文件数量:2 热度:4 最近下载:2025-09-20 04:30:04
    {"Subs": {"English.srt": 58038, "SDH.eng.HI.srt": 69907}, "www.YTS.MX.jpg": 53226, "YTSProxies.com.txt": 584, "A.Sacrifice.2024.720p.WEBRip.x264.AAC-[YTS.MX].mp4": 907442501, "A.Sacrifice.2024.720p.WEBRip.x264.AAC-[YTS.MX].srt": 58038}
创建时间: 2024-07-18 12:53:58 大小:865.63 MB 文件数量:6 热度:2 最近下载:2025-01-12 10:48:05
    {"Homicide 2024 S02E04 A Hollywood Affair 1080p NF WEB-DL DDP5 1 H 264-FLUX.mkv": 2309046558}
创建时间: 2024-07-18 13:09:33 大小:2.15 GB 文件数量:1 热度:3 最近下载:2025-02-22 11:34:02
    {"ComandoFilmesBr.net.url": 118, "Liga da Justiça - Crise nas Infinitas Terras - Parte Três 2024 WEB-DL 1080p x264 DUAL 5.1.mkv": 2415149549}
创建时间: 2024-07-18 13:44:50 大小:2.25 GB 文件数量:2 热度:8 最近下载:2025-09-23 19:06:01
    ... .com@GothGirlfriends.2024.Lola.Fae.Is.A.Cum.Lover.With.A.Foot.Fetish ...
创建时间: 2024-07-18 15:42:29 大小:730.83 MB 文件数量:19 热度:23 最近下载:2025-09-06 10:50:01
    {"Readme.txt": 957, "Bartholomae F. Game Theory and Applications. A Guide for Students...2024.pdf": 6524116}
创建时间: 2024-07-18 15:45:12 大小:6.22 MB 文件数量:2 热度:6 最近下载:2025-03-22 15:02:04
    {"Importante Leeme!.vbs": 213, "Descargar Películas, Series y Animes...url": 50, "La.fiesta.de.las.salchichas.Comidatopía.S01E03.2024.WEB-DL.1080p-Dual-Lat.mkv": 1353075771}
创建时间: 2024-07-18 16:17:38 大小:1.26 GB 文件数量:3 热度:4 最近下载:2025-02-09 13:17:04
    {"A Quiet Place Day One 2024 1080p TELESYNC x264 COLLECTiVEx.arj": 1213232919}
创建时间: 2024-07-18 16:28:31 大小:1.13 GB 文件数量:1 热度:4 最近下载:2025-02-20 12:37:03
    {"Readme.txt": 957, "Van Ooijen H. Production Control in Practice. A Situation-Dependent...Appr. 2024.pdf": 6561019}
创建时间: 2024-07-18 16:30:15 大小:6.26 MB 文件数量:2 热度:5 最近下载:2025-09-19 00:18:05
    {"A.Family.Affair.2024.1080p.WEBRip.AV1-DiN.mkv": 2593889810}
创建时间: 2024-07-18 16:58:27 大小:2.42 GB 文件数量:1 热度:4 最近下载:2025-08-03 14:33:03
    ... ENG] By Seregorn.mkv": 180777221, "A Sign of Affection - S01E05 - ... ] By Seregorn.mkv": 131539981, "A Sign of Affection - S01E11 - ... ] By Seregorn.mkv": 179919507, "A Sign of Affection - S01E03 - ... ] By Seregorn.mkv": 224692101, "A Sign of Affection - S01E06 - ...
创建时间: 2024-07-18 17:04:30 大小:2.04 GB 文件数量:12 热度:14 最近下载:2025-10-18 06:58:02
    {"Cover.jpg": 51376, "Front.jpg": 189074, "40. Push - Infini (Extended Mix).mp3": 14894744, "08. Jeef B - Iconic (Extended Mix).mp3": 14289752, "25. Matt Fax - Raven (Extended Mix).mp3": 12861378, "31. Farius - So High (Extended Mix).mp3": 14748464, "23. L ...
创建时间: 2024-07-18 17:06:33 大小:674.37 MB 文件数量:53 热度:2 最近下载:2025-01-21 20:02:06
    {"Readme_Finish.txt": 959, "Mitchell A. Lower Limb and Leg Ulcer Assessment and Management 2024.pdf": 44722642}
创建时间: 2024-07-18 17:58:15 大小:42.65 MB 文件数量:2 热度:3 最近下载:2025-09-15 13:25:19
    ... [By Seregorn].mkv": 418535365, "A Salad Bowl Of Eccentrics - 06 ... [By Seregorn].mkv": 407531054, "A Salad Bowl Of Eccentrics - 08 ... [By Seregorn].mkv": 358483140, "A Salad Bowl Of Eccentrics - 09 ... [By Seregorn].mkv": 314005532, "A Salad Bowl Of Eccentrics - 10 ...
创建时间: 2024-07-18 18:19:56 大小:4.45 GB 文件数量:12 热度:9 最近下载:2025-03-27 15:30:02
    {"Cover.jpg": 51244, "00.info.m3u": 2748, "00.info.nfo": 3109, "OneHack.us.txt": 133, "12. Jamiroquai - Talullah.flac": 42577603, "22. Chris Isaak - Wicked Game.flac": 33636245, "10. Roxy Music - More Than This.flac": 29927083, "19. Depeche Mode - Policy ...
创建时间: 2024-07-18 18:57:22 大小:806.37 MB 文件数量:29 热度:8 最近下载:2025-08-04 17:25:06
    {"Code.zip": 176109, "Images.zip": 679900, "Readme.txt": 957, "Cavalcante D. TypeScript Crash Course. A Hands-On Guide...2024.pdf": 2536483}
创建时间: 2024-07-18 19:18:46 大小:3.24 MB 文件数量:4 热度:4 最近下载:2025-01-14 13:51:03
    ... River.flac": 33999223, "10 L.A. Times.flac": 57887081, "02 Raze ... (Stripped).flac": 18897642, "16 L.A. Times (Stripped).flac": 53499090, "08 ...
创建时间: 2024-07-19 08:11:01 大小:679.51 MB 文件数量:18 热度:3 最近下载:2025-01-12 13:18:02
    ... Pound - W.A.W.G. (We All We Got) (2024) 320_kbps Beats ... ": 6475302, "Tha-Dogg-Pound-W.A.W.G.-We-All-We ...
创建时间: 2024-07-19 09:19:14 大小:109.23 MB 文件数量:15 热度:3 最近下载:2025-02-24 21:41:03